createdAt,value
2023-05-04T00:00:21.220Z,49.80
2023-05-04T00:01:22.785Z,50.16
2023-05-04T00:02:24.370Z,50.34
2023-05-04T00:03:26.154Z,50.59
2023-05-04T00:04:28.391Z,49.99
2023-05-04T00:05:30.010Z,50.22
2023-05-04T00:06:32.412Z,50.21
2023-05-04T00:07:34.384Z,50.48
2023-05-04T00:08:35.923Z,50.05
2023-05-04T00:09:37.632Z,50.26
2023-05-04T00:10:39.163Z,51.40
2023-05-04T00:11:41.620Z,51.44
2023-05-04T00:12:43.195Z,51.41
2023-05-04T00:13:44.770Z,51.76
2023-05-04T00:14:46.293Z,51.11
2023-05-04T00:15:47.857Z,51.18
2023-05-04T00:16:49.884Z,51.92
2023-05-04T00:17:51.697Z,51.55
2023-05-04T00:18:53.294Z,51.34
2023-05-04T00:19:55.000Z,50.85
2023-05-04T00:20:56.873Z,50.92
2023-05-04T00:21:58.500Z,50.99
2023-05-04T00:23:00.085Z,50.71
2023-05-04T00:24:02.422Z,50.69
2023-05-04T00:25:04.519Z,51.32
2023-05-04T00:26:06.639Z,51.31
2023-05-04T00:27:08.796Z,51.86
2023-05-04T00:28:10.549Z,51.93
2023-05-04T00:29:12.199Z,52.13
2023-05-04T00:30:14.169Z,52.27
2023-05-04T00:31:19.292Z,51.84
2023-05-04T00:32:21.273Z,51.49
2023-05-04T00:33:22.948Z,51.88
2023-05-04T00:34:24.819Z,51.70
2023-05-04T00:35:26.884Z,51.92
2023-05-04T00:36:29.437Z,51.94
2023-05-04T00:37:31.216Z,52.34
2023-05-04T00:38:47.121Z,51.61
2023-05-04T00:39:48.838Z,52.02
2023-05-04T00:40:50.973Z,51.59
2023-05-04T00:41:52.879Z,52.21
2023-05-04T00:42:54.476Z,52.15
2023-05-04T00:43:56.061Z,52.27
2023-05-04T00:44:57.599Z,52.67
2023-05-04T00:45:59.102Z,51.74
2023-05-04T00:47:00.746Z,51.88
2023-05-04T00:48:02.389Z,52.46
2023-05-04T00:49:04.192Z,52.09
2023-05-04T00:50:07.002Z,51.95
2023-05-04T00:51:08.707Z,52.08
2023-05-04T00:52:10.247Z,51.84
2023-05-04T00:53:11.821Z,52.40
2023-05-04T00:54:15.069Z,52.38
2023-05-04T00:55:16.670Z,53.18
2023-05-04T00:56:18.323Z,52.75
2023-05-04T00:57:19.842Z,52.44
2023-05-04T00:58:21.772Z,52.79
2023-05-04T00:59:23.335Z,52.62
2023-05-04T01:00:24.929Z,52.24
2023-05-04T01:01:26.844Z,52.92
2023-05-04T01:02:28.428Z,52.88
2023-05-04T01:03:30.032Z,52.57
2023-05-04T01:04:31.638Z,52.89
2023-05-04T01:05:36.426Z,53.07
2023-05-04T01:06:47.649Z,53.01
2023-05-04T01:07:58.988Z,53.46
2023-05-04T01:09:19.502Z,53.44
2023-05-04T01:10:26.408Z,53.50
2023-05-04T01:11:41.229Z,53.67
2023-05-04T01:12:45.079Z,54.17
2023-05-04T01:13:46.946Z,53.57
2023-05-04T01:14:48.560Z,53.74
2023-05-04T01:15:50.041Z,53.66
2023-05-04T01:16:56.199Z,54.87
2023-05-04T01:17:57.997Z,54.58
2023-05-04T01:18:59.509Z,54.12
2023-05-04T01:20:01.044Z,54.20
2023-05-04T01:21:02.658Z,54.46
2023-05-04T01:22:04.185Z,54.34
2023-05-04T01:23:05.783Z,54.55
2023-05-04T01:24:07.352Z,54.46
2023-05-04T01:25:09.115Z,54.89
2023-05-04T01:26:24.526Z,54.47
2023-05-04T01:27:36.380Z,54.02
2023-05-04T01:29:01.000Z,54.12
2023-05-04T01:30:06.015Z,53.80
2023-05-04T01:31:09.140Z,53.83
2023-05-04T01:32:10.762Z,53.10
2023-05-04T01:33:12.433Z,53.14
2023-05-04T01:34:14.037Z,53.42
2023-05-04T01:35:16.259Z,54.05
2023-05-04T01:36:19.535Z,54.14
2023-05-04T01:37:21.231Z,54.30
2023-05-04T01:38:22.729Z,54.07
2023-05-04T01:39:24.241Z,54.10
2023-05-04T01:40:25.764Z,54.09
2023-05-04T01:41:27.391Z,54.23
2023-05-04T01:42:28.888Z,54.01
2023-05-04T01:43:30.997Z,54.44
2023-05-04T01:44:32.726Z,53.96
2023-05-04T01:45:34.383Z,54.34
2023-05-04T01:46:36.104Z,53.95
2023-05-04T01:47:37.771Z,53.99
2023-05-04T01:48:39.314Z,54.08
2023-05-04T01:49:40.841Z,54.21
2023-05-04T01:50:42.363Z,53.76
2023-05-04T01:51:45.211Z,54.10
2023-05-04T01:52:46.719Z,53.77
2023-05-04T01:53:48.270Z,54.21
2023-05-04T01:54:49.798Z,54.52
2023-05-04T01:55:51.384Z,54.31
2023-05-04T01:56:52.926Z,54.37
2023-05-04T01:57:54.447Z,54.09
2023-05-04T01:58:55.961Z,54.82
2023-05-04T01:59:57.493Z,54.56
2023-05-04T02:00:59.371Z,55.15
2023-05-04T02:02:01.026Z,55.06
2023-05-04T02:03:02.920Z,55.26
2023-05-04T02:04:04.971Z,55.10
2023-05-04T02:05:07.254Z,55.46
2023-05-04T02:06:08.875Z,55.06
2023-05-04T02:07:10.423Z,54.89
2023-05-04T02:08:11.939Z,54.94
2023-05-04T02:09:13.623Z,55.06
2023-05-04T02:10:15.135Z,55.15
2023-05-04T02:11:16.621Z,54.91
2023-05-04T02:12:18.118Z,54.83
2023-05-04T02:13:19.740Z,54.58
2023-05-04T02:14:21.284Z,54.77
2023-05-04T02:15:22.813Z,55.06
2023-05-04T02:16:24.370Z,55.27
2023-05-04T02:17:26.039Z,55.12
2023-05-04T02:18:27.577Z,55.12
2023-05-04T02:19:29.090Z,55.92
2023-05-04T02:20:30.672Z,56.03
2023-05-04T02:21:32.181Z,55.49
2023-05-04T02:22:33.695Z,56.28
2023-05-04T02:23:35.197Z,56.06
2023-05-04T02:24:36.860Z,55.81
2023-05-04T02:25:43.852Z,56.25
2023-05-04T02:26:45.704Z,55.27
2023-05-04T02:27:47.248Z,55.35
2023-05-04T02:28:48.821Z,55.74
2023-05-04T02:29:50.353Z,55.35
2023-05-04T02:30:51.960Z,55.52
2023-05-04T02:31:53.473Z,55.34
2023-05-04T02:32:55.090Z,55.14
2023-05-04T02:33:56.647Z,55.02
2023-05-04T02:34:58.316Z,55.58
2023-05-04T02:35:59.875Z,55.32
2023-05-04T02:37:01.374Z,55.58
2023-05-04T02:38:02.997Z,55.85
2023-05-04T02:39:04.505Z,55.64
2023-05-04T02:40:06.928Z,56.35
2023-05-04T02:41:08.740Z,55.43
2023-05-04T02:42:10.361Z,56.02
2023-05-04T02:43:11.917Z,56.13
2023-05-04T02:44:13.430Z,56.12
2023-05-04T02:45:15.017Z,55.36
2023-05-04T02:46:17.063Z,55.53
2023-05-04T02:47:18.657Z,55.70
2023-05-04T02:48:20.209Z,55.53
2023-05-04T02:49:21.704Z,55.58
2023-05-04T02:50:23.238Z,55.01
2023-05-04T02:51:24.819Z,54.94
2023-05-04T02:52:26.321Z,54.91
2023-05-04T02:53:27.901Z,55.44
2023-05-04T02:54:29.432Z,55.10
2023-05-04T02:55:30.980Z,55.02
2023-05-04T02:56:32.505Z,55.17
2023-05-04T02:57:33.996Z,55.03
2023-05-04T02:58:35.515Z,55.11
2023-05-04T02:59:37.272Z,55.50
2023-05-04T03:00:38.796Z,55.12
2023-05-04T03:01:40.465Z,55.23
2023-05-04T03:02:42.295Z,55.25
2023-05-04T03:03:44.029Z,55.38
2023-05-04T03:04:45.812Z,55.33
2023-05-04T03:05:47.512Z,55.12
2023-05-04T03:06:49.022Z,54.81
2023-05-04T03:07:50.868Z,54.79
2023-05-04T03:08:52.377Z,55.48
2023-05-04T03:09:53.891Z,55.57
2023-05-04T03:10:55.728Z,55.69
2023-05-04T03:11:57.234Z,55.59
2023-05-04T03:13:03.800Z,55.90
2023-05-04T03:14:06.635Z,55.78
2023-05-04T03:15:08.613Z,55.37
2023-05-04T03:16:11.233Z,55.91
2023-05-04T03:17:12.761Z,55.58
2023-05-04T03:18:14.301Z,56.37
2023-05-04T03:19:18.957Z,55.33
2023-05-04T03:20:23.100Z,55.73
2023-05-04T03:21:24.933Z,55.33
2023-05-04T03:22:26.403Z,55.81
2023-05-04T03:23:27.889Z,55.40
2023-05-04T03:24:29.401Z,55.86
2023-05-04T03:25:30.901Z,55.61
2023-05-04T03:26:32.416Z,56.10
2023-05-04T03:27:33.934Z,57.40
2023-05-04T03:28:35.473Z,56.46
2023-05-04T03:29:37.045Z,57.06
2023-05-04T03:30:38.607Z,56.93
2023-05-04T03:31:40.609Z,56.83
2023-05-04T03:32:42.201Z,56.63
2023-05-04T03:33:43.751Z,56.82
2023-05-04T03:34:45.856Z,56.63
2023-05-04T03:35:47.548Z,56.77
2023-05-04T03:36:49.632Z,57.41
2023-05-04T03:37:51.135Z,57.41
2023-05-04T03:38:52.638Z,56.44
2023-05-04T03:39:54.147Z,57.00
2023-05-04T03:40:56.453Z,57.01
2023-05-04T03:41:58.313Z,57.36
2023-05-04T03:42:59.825Z,56.39
2023-05-04T03:44:01.361Z,56.38
2023-05-04T03:45:04.033Z,57.24
2023-05-04T03:46:05.773Z,56.98
2023-05-04T03:47:08.166Z,56.91
2023-05-04T03:48:09.743Z,57.04
2023-05-04T03:49:11.287Z,56.20
2023-05-04T03:50:13.416Z,56.52
2023-05-04T03:51:15.276Z,56.83
2023-05-04T03:52:16.858Z,56.20
2023-05-04T03:53:18.367Z,56.07
2023-05-04T03:54:19.879Z,56.71
2023-05-04T03:55:21.407Z,56.32
2023-05-04T03:56:23.271Z,56.10
2023-05-04T03:57:24.793Z,56.01
2023-05-04T03:58:26.377Z,56.38
2023-05-04T03:59:28.034Z,56.74
2023-05-04T04:00:29.792Z,56.41
2023-05-04T04:01:31.613Z,57.02
2023-05-04T04:02:33.194Z,56.44
2023-05-04T04:03:36.660Z,57.26
2023-05-04T04:04:38.304Z,56.93
2023-05-04T04:05:39.902Z,56.72
2023-05-04T04:06:43.423Z,56.74
2023-05-04T04:07:45.259Z,56.78
2023-05-04T04:08:46.777Z,56.62
2023-05-04T04:09:48.332Z,57.08
2023-05-04T04:10:49.937Z,56.33
2023-05-04T04:11:51.557Z,56.65
2023-05-04T04:12:53.121Z,56.97
2023-05-04T04:13:54.685Z,56.80
2023-05-04T04:14:56.300Z,56.08
2023-05-04T04:15:57.965Z,56.17
2023-05-04T04:16:59.533Z,56.49
2023-05-04T04:18:01.164Z,56.08
2023-05-04T04:19:02.782Z,56.06
2023-05-04T04:20:04.815Z,56.95
2023-05-04T04:21:06.918Z,56.47
2023-05-04T04:22:08.478Z,56.63
2023-05-04T04:23:10.004Z,56.17
2023-05-04T04:24:11.510Z,56.84
2023-05-04T04:25:13.623Z,55.62
2023-05-04T04:26:15.956Z,56.75
2023-05-04T04:27:17.714Z,56.50
2023-05-04T04:28:19.259Z,56.19
2023-05-04T04:29:20.928Z,55.93
2023-05-04T04:30:22.937Z,57.04
2023-05-04T04:31:24.542Z,56.19
2023-05-04T04:32:26.130Z,55.82
2023-05-04T04:33:27.701Z,56.88
2023-05-04T04:34:29.244Z,56.08
2023-05-04T04:35:32.715Z,56.88
2023-05-04T04:36:35.005Z,56.88
2023-05-04T04:37:36.725Z,56.10
2023-05-04T04:38:39.714Z,56.64
2023-05-04T04:39:41.169Z,56.50
2023-05-04T04:40:42.862Z,56.68
2023-05-04T04:41:44.390Z,56.67
2023-05-04T04:42:46.249Z,56.93
2023-05-04T04:43:48.015Z,56.89
2023-05-04T04:44:49.880Z,56.95
2023-05-04T04:45:54.134Z,56.96
2023-05-04T04:46:55.919Z,56.14
2023-05-04T04:47:57.644Z,56.56
2023-05-04T04:48:59.233Z,55.94
2023-05-04T04:50:01.048Z,55.77
2023-05-04T04:51:02.628Z,55.79
2023-05-04T04:52:04.709Z,56.65
2023-05-04T04:53:06.266Z,55.87
2023-05-04T04:54:07.796Z,56.00
2023-05-04T04:55:09.529Z,55.80
2023-05-04T04:56:11.391Z,56.42
2023-05-04T04:57:12.887Z,56.04
2023-05-04T04:58:14.432Z,56.25
2023-05-04T04:59:15.951Z,55.97
2023-05-04T05:00:17.866Z,56.28
2023-05-04T05:01:19.501Z,56.32
2023-05-04T05:02:21.029Z,56.52
2023-05-04T05:03:22.622Z,56.37
2023-05-04T05:04:25.218Z,56.10
2023-05-04T05:05:27.038Z,55.82
2023-05-04T05:06:28.566Z,56.29
2023-05-04T05:07:30.151Z,56.20
2023-05-04T05:08:32.700Z,55.88
2023-05-04T05:09:34.822Z,56.33
2023-05-04T05:10:36.438Z,57.01
2023-05-04T05:11:38.172Z,56.34
2023-05-04T05:12:39.851Z,57.05
2023-05-04T05:13:41.373Z,56.60
2023-05-04T05:14:43.199Z,57.07
2023-05-04T05:15:45.035Z,57.07
2023-05-04T05:16:46.610Z,57.64
2023-05-04T05:17:48.219Z,57.33
2023-05-04T05:18:50.642Z,57.78
2023-05-04T05:19:52.543Z,57.73
2023-05-04T05:20:54.511Z,57.67
2023-05-04T05:21:57.110Z,56.99
2023-05-04T05:22:58.867Z,56.25
2023-05-04T05:24:01.747Z,55.88
2023-05-04T05:25:04.393Z,56.08
2023-05-04T05:26:06.384Z,56.33
2023-05-04T05:27:08.322Z,56.53
2023-05-04T05:28:10.319Z,56.69
2023-05-04T05:29:11.822Z,56.62
2023-05-04T05:30:13.831Z,56.21
2023-05-04T05:31:15.874Z,56.53
2023-05-04T05:32:17.516Z,56.14
2023-05-04T05:33:19.108Z,56.11
2023-05-04T05:34:20.707Z,55.92
2023-05-04T05:35:22.247Z,56.04
2023-05-04T05:36:23.768Z,56.19
2023-05-04T05:37:25.285Z,56.36
2023-05-04T05:38:26.868Z,56.19
2023-05-04T05:39:29.210Z,55.47
2023-05-04T05:40:31.604Z,54.58
2023-05-04T05:41:33.137Z,53.89
2023-05-04T05:42:34.632Z,54.59
2023-05-04T05:43:38.577Z,54.66
2023-05-04T05:44:40.176Z,55.58
2023-05-04T05:45:41.708Z,55.17
2023-05-04T05:46:43.388Z,55.04
2023-05-04T05:47:45.045Z,54.37
2023-05-04T05:48:46.600Z,53.40
2023-05-04T05:49:48.117Z,52.70
2023-05-04T05:50:49.684Z,53.16
2023-05-04T05:51:51.206Z,52.72
2023-05-04T05:52:52.711Z,52.76
2023-05-04T05:53:54.218Z,52.83
2023-05-04T05:54:55.784Z,53.50
2023-05-04T05:55:57.352Z,53.74
2023-05-04T05:56:58.943Z,53.11
2023-05-04T05:58:00.503Z,52.88
2023-05-04T05:59:02.247Z,51.75
2023-05-04T06:00:05.374Z,51.18
2023-05-04T06:01:07.074Z,51.27
2023-05-04T06:02:08.651Z,49.94
2023-05-04T06:03:10.390Z,50.71
2023-05-04T06:04:12.059Z,49.74
2023-05-04T06:05:14.349Z,50.28
2023-05-04T06:06:16.619Z,50.19
2023-05-04T06:07:19.455Z,50.12
2023-05-04T06:08:21.024Z,49.51
2023-05-04T06:09:22.548Z,49.35
2023-05-04T06:10:24.425Z,48.65
2023-05-04T06:11:27.003Z,49.30
2023-05-04T06:12:28.679Z,49.54
2023-05-04T06:13:30.277Z,49.07
2023-05-04T06:14:31.856Z,49.50
2023-05-04T06:15:33.496Z,48.62
2023-05-04T06:16:35.675Z,49.75
2023-05-04T06:17:37.427Z,48.60
2023-05-04T06:18:38.942Z,49.29
2023-05-04T06:19:40.588Z,49.47
2023-05-04T06:20:42.118Z,49.43
2023-05-04T06:21:43.690Z,49.16
2023-05-04T06:22:45.188Z,48.38
2023-05-04T06:23:47.700Z,48.12
2023-05-04T06:24:49.246Z,49.23
2023-05-04T06:25:50.843Z,48.22
2023-05-04T06:26:52.366Z,48.78
2023-05-04T06:27:53.897Z,48.50
2023-05-04T06:28:55.453Z,48.22
2023-05-04T06:29:57.013Z,48.10
2023-05-04T06:30:58.789Z,48.46
2023-05-04T06:32:00.871Z,48.99
2023-05-04T06:33:04.282Z,47.55
2023-05-04T06:34:06.228Z,46.85
2023-05-04T06:35:09.415Z,47.33
2023-05-04T06:36:12.102Z,47.49
2023-05-04T06:37:14.852Z,46.67
2023-05-04T06:38:17.651Z,47.11
2023-05-04T06:39:19.226Z,47.09
2023-05-04T06:40:20.796Z,46.85
2023-05-04T06:41:22.436Z,47.01
2023-05-04T06:42:24.072Z,46.66
2023-05-04T06:43:25.592Z,46.60
2023-05-04T06:44:27.671Z,47.09
2023-05-04T06:45:29.444Z,47.07
2023-05-04T06:46:31.560Z,45.74
2023-05-04T06:47:36.768Z,45.61
2023-05-04T06:48:38.637Z,45.08
2023-05-04T06:49:40.587Z,45.22
2023-05-04T06:50:42.387Z,44.89
2023-05-04T06:51:44.266Z,45.01
2023-05-04T06:52:46.473Z,45.15
2023-05-04T06:53:48.142Z,45.35
2023-05-04T06:54:50.129Z,45.45
2023-05-04T06:55:51.694Z,45.30
2023-05-04T06:56:53.468Z,44.75
2023-05-04T06:57:55.010Z,44.13
2023-05-04T06:58:56.750Z,43.81
2023-05-04T06:59:58.361Z,43.86
2023-05-04T07:00:59.901Z,43.23
2023-05-04T07:02:01.566Z,42.74
2023-05-04T07:03:03.123Z,42.88
2023-05-04T07:04:04.868Z,42.52
2023-05-04T07:05:06.699Z,42.44
2023-05-04T07:06:08.597Z,42.80
2023-05-04T07:07:10.131Z,42.80
2023-05-04T07:08:12.432Z,42.45
2023-05-04T07:09:16.578Z,42.56
2023-05-04T07:10:19.546Z,42.56
2023-05-04T07:11:21.180Z,42.28
2023-05-04T07:12:22.717Z,42.40
2023-05-04T07:13:24.738Z,42.17
2023-05-04T07:14:26.726Z,41.85
2023-05-04T07:15:28.371Z,41.89
2023-05-04T07:16:30.007Z,41.64
2023-05-04T07:17:32.411Z,42.03
2023-05-04T07:18:34.066Z,42.24
2023-05-04T07:19:36.402Z,41.43
2023-05-04T07:20:37.969Z,41.60
2023-05-04T07:21:39.543Z,40.96
2023-05-04T07:22:41.274Z,40.83
2023-05-04T07:23:42.984Z,41.06
2023-05-04T07:24:44.539Z,41.57
2023-05-04T07:25:46.197Z,42.41
2023-05-04T07:26:47.794Z,43.17
2023-05-04T07:27:49.349Z,42.99
2023-05-04T07:28:50.886Z,41.69
2023-05-04T07:29:52.771Z,42.28
2023-05-04T07:30:54.518Z,41.81
2023-05-04T07:31:56.271Z,42.01
2023-05-04T07:32:58.002Z,41.73
2023-05-04T07:33:59.532Z,40.84
2023-05-04T07:35:01.068Z,40.41
2023-05-04T07:36:02.598Z,41.84
2023-05-04T07:37:05.120Z,41.46
2023-05-04T07:38:06.704Z,41.48
2023-05-04T07:39:08.242Z,41.17
2023-05-04T07:40:10.461Z,40.57
2023-05-04T07:41:12.052Z,40.75
2023-05-04T07:42:13.681Z,41.09
2023-05-04T07:43:15.253Z,40.22
2023-05-04T07:44:17.139Z,40.62
2023-05-04T07:45:18.758Z,39.70
2023-05-04T07:46:20.468Z,40.45
2023-05-04T07:47:22.777Z,40.29
2023-05-04T07:48:26.576Z,40.05
2023-05-04T07:49:28.600Z,40.15
2023-05-04T07:50:30.238Z,39.95
2023-05-04T07:51:31.840Z,39.57
2023-05-04T07:52:33.391Z,39.20
2023-05-04T07:53:35.031Z,39.65
2023-05-04T07:54:36.870Z,40.31
2023-05-04T07:55:38.642Z,40.63
2023-05-04T07:56:40.172Z,39.13
2023-05-04T07:57:41.695Z,38.31
2023-05-04T07:58:43.221Z,38.16
2023-05-04T07:59:44.740Z,38.66
2023-05-04T08:00:46.387Z,37.81
2023-05-04T08:01:47.998Z,38.50
2023-05-04T08:02:49.735Z,38.28
2023-05-04T08:03:51.721Z,38.15
2023-05-04T08:04:53.324Z,39.10
2023-05-04T08:05:54.867Z,38.18
2023-05-04T08:06:56.441Z,38.27
2023-05-04T08:07:58.022Z,38.42
2023-05-04T08:08:59.886Z,37.88
2023-05-04T08:10:01.448Z,37.32
2023-05-04T08:11:12.286Z,39.40
2023-05-04T08:12:20.551Z,37.82
2023-05-04T08:13:22.207Z,37.43
2023-05-04T08:14:23.791Z,37.48
2023-05-04T08:15:25.404Z,37.99
2023-05-04T08:16:28.382Z,38.13
2023-05-04T08:17:30.046Z,38.13
2023-05-04T08:18:31.972Z,37.86
2023-05-04T08:19:33.866Z,37.22
2023-05-04T08:20:35.498Z,37.27
2023-05-04T08:21:37.096Z,37.37
2023-05-04T08:22:38.804Z,38.12
2023-05-04T08:23:40.694Z,37.20
2023-05-04T08:24:42.256Z,37.28
2023-05-04T08:25:43.793Z,37.47
2023-05-04T08:26:55.689Z,37.05
2023-05-04T08:28:01.526Z,36.99
2023-05-04T08:29:07.653Z,37.24
2023-05-04T08:30:10.156Z,37.03
2023-05-04T08:31:12.511Z,37.25
2023-05-04T08:32:14.171Z,37.06
2023-05-04T08:33:15.726Z,37.24
2023-05-04T08:34:17.607Z,36.05
2023-05-04T08:35:19.173Z,36.08
2023-05-04T08:36:20.835Z,36.09
2023-05-04T08:37:22.435Z,36.20
2023-05-04T08:38:24.110Z,36.58
2023-05-04T08:39:25.800Z,36.03
2023-05-04T08:40:27.469Z,35.70
2023-05-04T08:41:29.107Z,35.55
2023-05-04T08:42:31.806Z,36.00
2023-05-04T08:43:37.124Z,35.89
2023-05-04T08:44:38.731Z,35.55
2023-05-04T08:45:40.409Z,35.94
2023-05-04T08:46:42.298Z,35.53
2023-05-04T08:47:45.123Z,36.02
2023-05-04T08:48:47.034Z,35.94
2023-05-04T08:49:48.582Z,35.30
2023-05-04T08:50:50.181Z,34.98
2023-05-04T08:51:51.815Z,35.20
2023-05-04T08:52:53.528Z,34.65
2023-05-04T08:53:55.145Z,35.12
2023-05-04T08:54:57.009Z,35.66
2023-05-04T08:55:59.320Z,37.28
2023-05-04T08:57:02.271Z,36.67
2023-05-04T08:58:10.361Z,36.05
2023-05-04T08:59:22.953Z,35.96
2023-05-04T09:00:24.690Z,35.50
2023-05-04T09:01:26.490Z,36.04
2023-05-04T09:02:28.156Z,36.25
2023-05-04T09:03:30.348Z,36.07
2023-05-04T09:04:31.977Z,36.17
2023-05-04T09:05:33.569Z,35.82
2023-05-04T09:06:35.311Z,36.03
2023-05-04T09:07:36.874Z,34.72
2023-05-04T09:08:38.769Z,34.51
2023-05-04T09:09:40.335Z,35.11
2023-05-04T09:10:41.869Z,35.36
2023-05-04T09:11:43.731Z,35.37
2023-05-04T09:12:45.284Z,35.65
2023-05-04T09:13:47.734Z,34.64
2023-05-04T09:14:49.274Z,34.85
2023-05-04T09:15:57.423Z,35.60
2023-05-04T09:16:58.985Z,34.80
2023-05-04T09:18:05.358Z,35.19
2023-05-04T09:19:20.031Z,35.38
2023-05-04T09:20:21.715Z,35.71
2023-05-04T09:21:30.334Z,35.07
2023-05-04T09:22:31.874Z,35.99
2023-05-04T09:23:34.510Z,34.96
2023-05-04T09:24:36.226Z,35.45
2023-05-04T09:25:50.498Z,36.09
2023-05-04T09:26:52.231Z,36.08
2023-05-04T09:27:56.839Z,34.57
2023-05-04T09:29:10.514Z,35.45
2023-05-04T09:30:12.610Z,34.94
2023-05-04T09:31:15.112Z,34.55
2023-05-04T09:32:16.706Z,35.07
2023-05-04T09:33:25.645Z,36.53
2023-05-04T09:34:27.028Z,35.54
2023-05-04T09:35:33.768Z,35.34
2023-05-04T09:36:35.792Z,34.96
2023-05-04T09:37:46.887Z,34.80
2023-05-04T09:38:49.048Z,34.02
2023-05-04T09:39:53.995Z,33.60
2023-05-04T09:40:59.282Z,33.73
2023-05-04T09:42:00.856Z,33.62
2023-05-04T09:43:03.098Z,33.65
2023-05-04T09:44:05.089Z,34.68
2023-05-04T09:45:08.068Z,34.54
2023-05-04T09:46:17.457Z,34.27
2023-05-04T09:47:19.088Z,34.37
2023-05-04T09:48:31.275Z,35.26
2023-05-04T09:49:37.458Z,33.71
2023-05-04T09:50:40.196Z,33.25
2023-05-04T09:51:41.980Z,33.53
2023-05-04T09:52:44.614Z,33.98
2023-05-04T09:53:46.236Z,33.99
2023-05-04T09:54:47.715Z,33.81
2023-05-04T09:55:56.635Z,33.64
2023-05-04T09:57:15.876Z,33.97
2023-05-04T09:58:18.473Z,34.96
2023-05-04T09:59:20.267Z,34.32
2023-05-04T10:00:21.882Z,33.63
2023-05-04T10:01:24.122Z,34.14
2023-05-04T10:02:26.304Z,34.49
2023-05-04T10:03:28.230Z,34.56
2023-05-04T10:04:29.807Z,33.57
2023-05-04T10:05:31.434Z,33.33
2023-05-04T10:06:33.219Z,32.93
2023-05-04T10:07:34.848Z,33.15
2023-05-04T10:08:36.384Z,32.82
2023-05-04T10:09:37.887Z,32.83
2023-05-04T10:10:39.906Z,32.91
2023-05-04T10:11:42.397Z,33.10
2023-05-04T10:12:46.700Z,32.67
2023-05-04T10:13:48.349Z,32.37
2023-05-04T10:14:49.871Z,31.95
2023-05-04T10:16:17.730Z,32.04
2023-05-04T10:17:31.372Z,32.76
2023-05-04T10:19:04.932Z,30.97
2023-05-04T10:20:09.654Z,30.94
2023-05-04T10:21:32.614Z,30.76
2023-05-04T10:23:08.284Z,29.28
2023-05-04T10:24:44.725Z,29.66
2023-05-04T10:25:59.674Z,30.29
2023-05-04T10:27:04.797Z,30.49
2023-05-04T10:28:28.080Z,30.47
2023-05-04T10:29:30.089Z,30.75
2023-05-04T10:30:31.679Z,30.13
2023-05-04T10:31:43.024Z,30.04
2023-05-04T10:32:44.722Z,30.07
2023-05-04T10:33:46.477Z,30.36
2023-05-04T10:34:48.038Z,30.39
2023-05-04T10:35:51.408Z,30.63
2023-05-04T10:36:52.964Z,30.09
2023-05-04T10:37:55.662Z,29.56
2023-05-04T10:38:57.196Z,29.91
2023-05-04T10:39:58.717Z,30.13
2023-05-04T10:41:00.365Z,30.31
2023-05-04T10:42:03.965Z,30.18
2023-05-04T10:43:07.274Z,30.60
2023-05-04T10:44:10.067Z,30.60
2023-05-04T10:45:13.131Z,30.48
2023-05-04T10:46:18.854Z,29.68
2023-05-04T10:47:32.960Z,29.72
2023-05-04T10:48:37.654Z,29.50
2023-05-04T10:49:39.238Z,29.33
2023-05-04T10:50:49.901Z,29.18
2023-05-04T10:52:04.640Z,29.76
2023-05-04T10:53:06.272Z,28.75
2023-05-04T10:54:18.062Z,29.10
2023-05-04T10:55:20.224Z,29.08
2023-05-04T10:56:28.206Z,28.53
2023-05-04T10:57:30.589Z,29.48
2023-05-04T10:58:32.212Z,28.25
2023-05-04T10:59:36.036Z,27.95
2023-05-04T11:00:39.015Z,28.00
2023-05-04T11:01:46.564Z,28.12
2023-05-04T11:02:48.874Z,28.01
2023-05-04T11:03:50.813Z,28.37
2023-05-04T11:05:08.279Z,28.25
2023-05-04T11:06:23.426Z,28.05
2023-05-04T11:07:36.703Z,28.55
2023-05-04T11:08:38.253Z,29.82
2023-05-04T11:09:41.792Z,29.23
2023-05-04T11:10:43.360Z,28.87
2023-05-04T11:11:44.880Z,28.83
2023-05-04T11:12:46.467Z,28.57
2023-05-04T11:13:48.129Z,28.65
2023-05-04T11:14:49.751Z,28.63
2023-05-04T11:15:54.240Z,28.72
2023-05-04T11:18:25.508Z,29.29
2023-05-04T11:19:27.077Z,29.48
2023-05-04T11:20:28.620Z,29.34
2023-05-04T11:21:30.159Z,28.85
2023-05-04T11:22:32.772Z,28.76
2023-05-04T11:23:34.379Z,29.14
2023-05-04T11:24:42.459Z,29.45
2023-05-04T11:25:44.057Z,28.76
2023-05-04T11:26:47.990Z,29.05
2023-05-04T11:27:50.547Z,28.31
2023-05-04T11:28:52.128Z,27.90
2023-05-04T11:29:57.361Z,28.90
2023-05-04T11:30:58.967Z,28.87
2023-05-04T11:32:01.831Z,29.13
2023-05-04T11:33:05.723Z,28.84
2023-05-04T11:34:07.390Z,29.14
2023-05-04T11:35:10.176Z,28.95
2023-05-04T11:36:12.399Z,28.66
2023-05-04T11:37:14.446Z,28.31
2023-05-04T11:38:21.760Z,29.04
2023-05-04T11:39:23.385Z,29.82
2023-05-04T11:40:25.969Z,29.91
2023-05-04T11:41:30.160Z,29.10
2023-05-04T11:42:32.612Z,28.54
2023-05-04T11:43:34.118Z,28.95
2023-05-04T11:44:37.276Z,28.16
2023-05-04T11:45:40.126Z,28.02
2023-05-04T11:46:41.610Z,28.75
2023-05-04T11:47:44.062Z,28.92
2023-05-04T11:48:46.160Z,29.04
2023-05-04T11:49:47.767Z,28.82
2023-05-04T11:50:49.383Z,29.21
2023-05-04T11:51:50.944Z,29.12
2023-05-04T11:53:02.727Z,29.60
2023-05-04T11:54:07.568Z,29.00
2023-05-04T11:55:13.565Z,29.44
2023-05-04T11:56:15.119Z,28.23
2023-05-04T11:57:23.516Z,28.07
2023-05-04T11:58:25.706Z,28.18
2023-05-04T11:59:27.206Z,27.72
2023-05-04T12:00:39.750Z,27.81
2023-05-04T12:01:42.044Z,28.12
2023-05-04T12:02:43.669Z,29.30
2023-05-04T12:03:53.784Z,29.00
2023-05-04T12:04:56.465Z,28.47
2023-05-04T12:05:58.458Z,29.59
2023-05-04T12:07:01.818Z,29.41
2023-05-04T12:08:03.697Z,29.89
2023-05-04T12:09:08.758Z,28.76
2023-05-04T12:10:10.932Z,27.61
2023-05-04T12:11:26.265Z,27.18
2023-05-04T12:12:35.133Z,27.21
2023-05-04T12:13:36.840Z,27.73
2023-05-04T12:14:50.592Z,28.03
2023-05-04T12:15:52.092Z,27.80
2023-05-04T12:16:57.632Z,26.32
2023-05-04T12:18:01.829Z,25.77
2023-05-04T12:19:09.305Z,25.92
2023-05-04T12:20:11.617Z,25.84
2023-05-04T12:21:14.611Z,27.31
2023-05-04T12:22:17.307Z,26.74
2023-05-04T12:23:18.876Z,26.06
2023-05-04T12:24:24.404Z,26.05
2023-05-04T12:25:26.521Z,26.04
2023-05-04T12:26:28.335Z,24.51
2023-05-04T12:27:29.942Z,24.18
2023-05-04T12:28:31.643Z,23.97
2023-05-04T12:29:33.199Z,23.82
2023-05-04T12:30:34.747Z,24.12
2023-05-04T12:31:36.740Z,23.81
2023-05-04T12:32:38.371Z,23.86
2023-05-04T12:33:39.917Z,23.85
2023-05-04T12:34:41.438Z,23.79
2023-05-04T12:35:42.973Z,24.25
2023-05-04T12:36:44.558Z,24.01
2023-05-04T12:37:46.218Z,24.61
2023-05-04T12:38:47.792Z,23.90
2023-05-04T12:39:49.351Z,24.56
2023-05-04T12:40:50.854Z,24.64
2023-05-04T12:41:52.419Z,24.97
2023-05-04T12:42:54.055Z,24.78
2023-05-04T12:43:55.970Z,24.24
2023-05-04T12:44:57.489Z,23.02
2023-05-04T12:45:59.047Z,23.82
2023-05-04T12:47:00.598Z,22.79
2023-05-04T12:48:02.382Z,22.58
2023-05-04T12:49:03.948Z,23.82
2023-05-04T12:50:06.118Z,24.58
2023-05-04T12:51:07.680Z,23.96
2023-05-04T12:52:09.303Z,22.47
2023-05-04T12:53:10.893Z,21.94
2023-05-04T12:54:12.490Z,21.94
2023-05-04T12:55:14.200Z,21.28
2023-05-04T12:56:15.691Z,20.59
2023-05-04T12:57:17.285Z,20.83
2023-05-04T12:58:18.792Z,21.23
2023-05-04T12:59:20.435Z,20.77
2023-05-04T13:00:22.130Z,21.08
2023-05-04T13:01:23.801Z,21.62
2023-05-04T13:02:25.566Z,20.83
2023-05-04T13:03:27.360Z,20.60
2023-05-04T13:04:29.435Z,21.02
2023-05-04T13:05:31.104Z,21.58
2023-05-04T13:06:32.654Z,21.90
2023-05-04T13:07:34.726Z,21.97
2023-05-04T13:08:36.735Z,21.90
2023-05-04T13:09:38.732Z,22.93
2023-05-04T13:10:40.244Z,22.03
2023-05-04T13:11:42.107Z,22.29
2023-05-04T13:12:46.080Z,21.85
2023-05-04T13:13:47.912Z,21.63
2023-05-04T13:14:49.462Z,21.70
2023-05-04T13:15:51.264Z,22.00
2023-05-04T13:16:54.042Z,21.58
2023-05-04T13:17:55.598Z,21.32
2023-05-04T13:18:57.954Z,21.87
2023-05-04T13:19:59.890Z,21.65
2023-05-04T13:21:01.477Z,21.29
2023-05-04T13:22:03.412Z,20.80
2023-05-04T13:23:04.978Z,20.76
2023-05-04T13:24:06.864Z,20.95
2023-05-04T13:25:08.685Z,21.11
2023-05-04T13:26:10.648Z,20.95
2023-05-04T13:27:12.665Z,20.93
2023-05-04T13:28:14.698Z,21.83
2023-05-04T13:29:16.483Z,21.69
2023-05-04T13:30:18.350Z,20.79